Time;durP1;ratioP1;P1;durP2;ratioP2;P2;SDS_P1;SDS_P2;PMS_P1;PMS_P2;Temp;Humidity;BMP_temperature;BMP_pressure;BME280_temperature;BME280_humidity;BME280_pressure;Samples;Min_cycle;Max_cycle;Signal;HPM_P1;HPM_P2
2022/03/23 00:00:46;;;;;;;78.20;35.95;;;8.60;40.00;;;;;;5055418;28;20104;-86
2022/03/23 00:03:15;;;;;;;79.35;32.78;;;8.60;40.00;;;;;;5054719;28;20462;-86
2022/03/23 00:05:42;;;;;;;64.20;31.70;;;8.60;39.90;;;;;;5057123;28;20031;-87
2022/03/23 00:08:08;;;;;;;63.75;28.27;;;8.60;40.10;;;;;;5065693;28;20040;-86
2022/03/23 00:10:34;;;;;;;61.70;28.52;;;8.60;40.20;;;;;;5074277;28;20036;-86
2022/03/23 00:13:01;;;;;;;52.58;27.15;;;8.50;40.30;;;;;;5073551;28;20021;-87
2022/03/23 00:15:30;;;;;;;56.63;26.65;;;8.50;40.70;;;;;;5065534;28;20470;-87
2022/03/23 00:17:56;;;;;;;52.53;25.48;;;8.50;40.80;;;;;;5057131;28;20033;-86
2022/03/23 00:20:22;;;;;;;50.17;24.13;;;8.40;40.80;;;;;;5055721;28;20541;-88
2022/03/23 00:22:48;;;;;;;39.03;20.02;;;8.40;41.00;;;;;;5055528;28;20025;-87
2022/03/23 00:25:14;;;;;;;38.53;19.70;;;8.40;41.10;;;;;;5053145;28;20113;-87
2022/03/23 00:27:40;;;;;;;45.53;21.45;;;8.40;41.30;;;;;;5054307;28;20035;-86
2022/03/23 00:30:07;;;;;;;53.55;24.00;;;8.30;41.10;;;;;;5054597;28;20033;-86
2022/03/23 00:32:34;;;;;;;39.55;19.88;;;8.40;41.20;;;;;;5053670;28;20036;-85
2022/03/23 00:35:00;;;;;;;35.00;20.27;;;8.30;41.40;;;;;;5054413;28;20025;-86
2022/03/23 00:37:26;;;;;;;36.95;18.67;;;8.30;41.50;;;;;;5054743;28;20492;-86
2022/03/23 00:39:52;;;;;;;50.72;24.38;;;8.30;41.60;;;;;;5057418;28;20029;-87
2022/03/23 00:42:17;;;;;;;40.90;20.92;;;8.30;41.50;;;;;;5057463;28;20029;-85
2022/03/23 00:44:43;;;;;;;34.15;20.02;;;8.20;41.70;;;;;;5054979;28;20147;-86
2022/03/23 00:47:10;;;;;;;37.70;20.17;;;8.20;41.80;;;;;;5054068;28;20025;-87
2022/03/23 00:49:37;;;;;;;36.80;20.63;;;8.20;41.80;;;;;;5053767;28;20029;-86
2022/03/23 00:52:05;;;;;;;39.70;19.17;;;8.20;41.90;;;;;;5053698;28;20508;-86
2022/03/23 00:54:34;;;;;;;36.40;19.60;;;8.20;41.80;;;;;;5055053;28;20474;-85
2022/03/23 00:57:01;;;;;;;37.45;19.90;;;8.10;42.10;;;;;;5052595;28;20036;-86
2022/03/23 00:59:27;;;;;;;45.85;19.90;;;8.10;42.20;;;;;;5053736;28;20044;-86
2022/03/23 01:01:53;;;;;;;33.45;17.90;;;8.10;42.40;;;;;;5058456;28;20331;-84
2022/03/23 01:04:19;;;;;;;30.48;19.02;;;8.00;42.70;;;;;;5056078;28;20036;-85
2022/03/23 01:06:45;;;;;;;29.13;17.98;;;8.10;42.80;;;;;;5054920;28;20029;-87
2022/03/23 01:09:12;;;;;;;31.48;17.98;;;8.00;42.50;;;;;;5053574;28;20056;-86
2022/03/23 01:11:37;;;;;;;31.42;16.80;;;8.00;42.90;;;;;;5052469;28;20040;-85
2022/03/23 01:14:04;;;;;;;33.20;17.02;;;8.00;42.80;;;;;;5051747;28;20025;-85
2022/03/23 01:16:30;;;;;;;26.80;16.08;;;8.00;43.10;;;;;;5052499;28;20493;-86
2022/03/23 01:18:56;;;;;;;26.35;16.08;;;8.00;43.20;;;;;;5054287;28;20151;-86
2022/03/23 01:21:22;;;;;;;27.23;15.77;;;8.00;43.30;;;;;;5053436;28;20087;-86
2022/03/23 01:23:48;;;;;;;26.80;14.80;;;8.00;43.40;;;;;;5051793;28;20024;-85
2022/03/23 01:26:13;;;;;;;27.63;16.63;;;8.00;43.40;;;;;;5052306;28;20106;-86
2022/03/23 01:28:39;;;;;;;27.67;16.50;;;8.00;43.50;;;;;;5052233;28;20115;-86
2022/03/23 01:31:05;;;;;;;27.45;16.42;;;8.00;44.10;;;;;;5051262;28;20462;-86
2022/03/23 01:33:32;;;;;;;31.02;15.82;;;7.90;44.40;;;;;;5051837;28;20450;-86
2022/03/23 01:35:58;;;;;;;29.13;14.73;;;7.90;44.60;;;;;;5054162;28;20331;-86
2022/03/23 01:38:23;;;;;;;28.27;15.88;;;7.80;44.80;;;;;;5051655;28;20033;-86
2022/03/23 01:40:50;;;;;;;28.48;15.48;;;7.80;44.80;;;;;;5053234;28;20033;-86
2022/03/23 01:43:15;;;;;;;29.05;15.77;;;7.70;44.90;;;;;;5052562;28;20477;-84
2022/03/23 01:45:41;;;;;;;27.40;15.13;;;7.60;45.30;;;;;;5051500;28;20029;-84
2022/03/23 01:48:07;;;;;;;25.77;15.98;;;7.60;45.60;;;;;;5050940;28;20029;-86
2022/03/23 01:50:32;;;;;;;26.17;15.82;;;7.60;45.70;;;;;;5053167;28;20047;-86
2022/03/23 01:52:58;;;;;;;28.30;15.52;;;7.50;45.90;;;;;;5053075;28;20079;-87
2022/03/23 01:55:24;;;;;;;26.73;14.63;;;7.50;45.90;;;;;;5050559;28;20049;-86
2022/03/23 01:57:52;;;;;;;26.70;14.73;;;7.50;45.90;;;;;;5051949;28;20481;-86
2022/03/23 02:00:19;;;;;;;25.52;14.45;;;7.50;45.80;;;;;;5051680;28;20025;-87
2022/03/23 02:02:45;;;;;;;25.35;13.98;;;7.40;45.50;;;;;;5052731;28;20079;-86
2022/03/23 02:05:12;;;;;;;23.67;13.73;;;7.40;45.50;;;;;;5052619;28;20454;-86
2022/03/23 02:07:39;;;;;;;19.02;12.82;;;7.40;45.10;;;;;;5052630;28;20416;-86
2022/03/23 02:10:07;;;;;;;22.67;13.00;;;7.30;44.80;;;;;;5052429;28;20025;-86
2022/03/23 02:12:34;;;;;;;20.08;11.90;;;7.40;44.40;;;;;;5051260;28;20031;-86
2022/03/23 02:15:08;;;;;;;23.65;11.75;;;7.30;44.10;;;;;;5051477;28;20033;-86
2022/03/23 02:17:34;;;;;;;21.50;11.20;;;7.30;43.70;;;;;;5052043;28;20483;-87
2022/03/23 02:20:01;;;;;;;18.05;11.43;;;7.20;43.60;;;;;;5052328;28;20111;-86
2022/03/23 02:22:26;;;;;;;17.30;11.52;;;7.20;43.60;;;;;;5052120;28;20029;-86
2022/03/23 02:24:52;;;;;;;19.52;12.00;;;7.20;43.30;;;;;;5052963;28;20429;-87
2022/03/23 02:27:19;;;;;;;16.30;11.35;;;7.20;43.80;;;;;;5050861;28;20025;-87
2022/03/23 02:29:45;;;;;;;20.98;11.98;;;7.20;43.20;;;;;;5051095;28;20058;-87
2022/03/23 02:32:13;;;;;;;22.52;11.88;;;7.10;43.00;;;;;;5051937;28;20025;-87
2022/03/23 02:34:39;;;;;;;19.83;11.85;;;7.10;42.90;;;;;;5051126;28;20025;-86
2022/03/23 02:37:23;;;;;;;20.83;11.98;;;7.10;42.90;;;;;;5051247;28;20025;-85
2022/03/23 02:39:49;;;;;;;19.45;11.60;;;7.10;42.80;;;;;;5052571;28;20037;-86
2022/03/23 02:42:14;;;;;;;20.40;12.00;;;7.10;43.20;;;;;;5051710;28;20126;-87
2022/03/23 02:44:40;;;;;;;24.75;11.90;;;7.10;43.10;;;;;;5052659;28;20517;-86
2022/03/23 02:47:25;;;;;;;21.30;11.90;;;7.10;43.00;;;;;;5052024;28;20032;-82
2022/03/23 02:49:50;;;;;;;18.05;10.95;;;7.10;43.00;;;;;;5052421;28;20044;-86
2022/03/23 02:52:16;;;;;;;18.48;12.00;;;7.10;43.00;;;;;;5051614;28;20018;-87
2022/03/23 03:03:40;;;;;;;19.42;12.23;;;7.00;43.40;;;;;;5052158;28;20040;-86
2022/03/23 03:06:05;;;;;;;18.45;12.32;;;7.00;43.40;;;;;;5052542;28;20025;-86
2022/03/23 03:08:49;;;;;;;18.23;12.00;;;7.00;43.40;;;;;;5051504;28;20029;-85
2022/03/23 03:11:19;;;;;;;18.95;11.80;;;7.00;43.40;;;;;;5067133;28;20112;-86
2022/03/23 03:13:48;;;;;;;21.52;12.68;;;7.00;43.50;;;;;;5052062;28;20151;-86
2022/03/23 03:16:15;;;;;;;20.90;12.32;;;7.00;43.70;;;;;;5051828;28;20025;-86
2022/03/23 03:18:40;;;;;;;22.70;11.80;;;7.00;43.70;;;;;;5051592;28;20029;-87
2022/03/23 03:21:08;;;;;;;23.13;12.55;;;7.00;43.60;;;;;;5052020;28;20039;-86
2022/03/23 03:23:34;;;;;;;18.27;11.43;;;7.00;43.80;;;;;;5052324;28;20025;-86
2022/03/23 03:26:05;;;;;;;22.02;12.50;;;7.00;43.90;;;;;;5050750;28;20043;-86
2022/03/23 03:28:36;;;;;;;19.98;12.10;;;7.00;43.90;;;;;;5052808;28;20047;-86
2022/03/23 03:31:03;;;;;;;16.80;11.43;;;6.90;44.00;;;;;;5055704;28;20546;-86
2022/03/23 03:33:30;;;;;;;19.98;12.93;;;6.90;44.40;;;;;;5053569;28;20055;-86
2022/03/23 03:35:55;;;;;;;18.27;12.43;;;6.90;44.80;;;;;;5054076;28;20025;-86
2022/03/23 03:38:21;;;;;;;22.75;12.50;;;6.90;44.80;;;;;;5055195;28;20082;-86
2022/03/23 03:40:47;;;;;;;19.33;12.10;;;6.80;44.90;;;;;;5054425;28;20029;-87
2022/03/23 03:43:12;;;;;;;20.83;12.20;;;6.80;45.10;;;;;;5055275;28;20025;-86
2022/03/23 03:45:38;;;;;;;26.50;13.20;;;6.80;45.50;;;;;;5057441;28;20028;-85
2022/03/23 03:48:04;;;;;;;19.50;12.50;;;6.80;45.30;;;;;;5056600;28;20119;-86
2022/03/23 03:50:30;;;;;;;20.00;11.60;;;6.70;45.50;;;;;;5057056;28;20061;-86
2022/03/23 03:52:55;;;;;;;21.50;11.88;;;6.70;46.60;;;;;;5056704;28;20021;-87
2022/03/23 03:55:21;;;;;;;20.40;11.55;;;6.70;45.90;;;;;;5056230;28;20053;-85
2022/03/23 03:57:47;;;;;;;20.13;11.07;;;6.70;45.60;;;;;;5056547;28;20036;-86
2022/03/23 04:00:15;;;;;;;21.77;12.15;;;6.70;45.40;;;;;;5054644;28;20036;-86
2022/03/23 04:02:40;;;;;;;23.23;14.23;;;6.70;45.40;;;;;;5055695;28;20083;-87
2022/03/23 04:05:06;;;;;;;22.85;13.27;;;6.60;45.90;;;;;;5053967;28;20355;-87
2022/03/23 04:07:33;;;;;;;28.15;14.32;;;6.60;46.50;;;;;;5054374;28;20036;-85
2022/03/23 04:10:00;;;;;;;32.45;15.60;;;6.60;46.90;;;;;;5054482;28;20191;-87
2022/03/23 04:12:26;;;;;;;32.42;15.90;;;6.50;47.50;;;;;;5057004;28;20079;-86
2022/03/23 04:14:52;;;;;;;33.92;15.45;;;6.50;47.70;;;;;;5059333;28;20021;-86
2022/03/23 04:17:17;;;;;;;33.90;16.13;;;6.50;48.00;;;;;;5059869;28;20021;-86
2022/03/23 04:19:43;;;;;;;31.90;16.33;;;6.50;48.30;;;;;;5070514;28;20029;-86
2022/03/23 04:22:09;;;;;;;36.65;15.98;;;6.50;48.30;;;;;;5061673;28;20119;-87
2022/03/23 04:24:35;;;;;;;36.50;15.75;;;6.40;48.60;;;;;;5057247;28;20501;-87
2022/03/23 04:27:00;;;;;;;31.23;15.82;;;6.40;48.80;;;;;;5056093;28;20521;-87
2022/03/23 04:29:26;;;;;;;36.65;16.20;;;6.40;49.10;;;;;;5054148;28;20029;-86
2022/03/23 04:31:52;;;;;;;26.55;15.20;;;6.40;49.10;;;;;;5057060;28;20021;-88
2022/03/23 04:34:18;;;;;;;30.17;15.02;;;6.40;49.10;;;;;;5050916;28;20115;-88
2022/03/23 04:36:44;;;;;;;29.23;15.40;;;6.30;48.80;;;;;;5055395;28;20049;-85
2022/03/23 04:39:10;;;;;;;33.60;15.15;;;6.30;48.70;;;;;;5053065;28;20116;-87
2022/03/23 04:41:35;;;;;;;25.25;15.05;;;6.30;49.10;;;;;;5055763;28;20029;-86
2022/03/23 04:44:01;;;;;;;31.10;15.43;;;6.30;49.40;;;;;;5055206;28;20048;-86
2022/03/23 04:46:26;;;;;;;26.67;15.02;;;6.20;49.10;;;;;;5055398;28;20100;-87
2022/03/23 04:48:52;;;;;;;27.77;15.00;;;6.20;49.70;;;;;;5055251;28;20033;-85
2022/03/23 04:51:18;;;;;;;30.50;14.35;;;6.20;49.70;;;;;;5053861;28;20030;-86
2022/03/23 04:53:43;;;;;;;45.15;16.13;;;6.20;49.60;;;;;;5056552;28;20029;-86
2022/03/23 04:56:09;;;;;;;34.45;15.73;;;6.10;49.70;;;;;;5052638;28;20141;-85
2022/03/23 04:58:35;;;;;;;31.27;14.68;;;6.10;50.20;;;;;;5053345;28;20386;-85
2022/03/23 05:01:01;;;;;;;31.75;15.48;;;6.10;50.30;;;;;;5054463;28;20029;-86
2022/03/23 05:03:28;;;;;;;24.73;15.35;;;6.10;50.50;;;;;;5053050;28;20056;-85
2022/03/23 05:05:54;;;;;;;28.30;14.38;;;6.10;50.50;;;;;;5053821;28;20067;-86
2022/03/23 05:08:20;;;;;;;31.52;15.52;;;6.10;50.40;;;;;;5051667;28;20041;-85
2022/03/23 05:10:45;;;;;;;34.42;14.25;;;6.10;51.00;;;;;;5053757;28;20021;-85
2022/03/23 05:13:11;;;;;;;36.83;15.75;;;6.10;50.80;;;;;;5053961;28;20469;-86
2022/03/23 05:15:37;;;;;;;37.13;15.50;;;6.10;51.20;;;;;;5052274;28;20466;-85
2022/03/23 05:18:04;;;;;;;29.85;14.90;;;6.10;51.20;;;;;;5033440;28;20029;-86
2022/03/23 05:20:30;;;;;;;28.80;15.05;;;6.10;51.70;;;;;;5033095;28;20157;-85
2022/03/23 05:22:56;;;;;;;39.17;15.55;;;6.20;51.80;;;;;;5033783;28;20439;-86
2022/03/23 05:25:22;;;;;;;34.85;15.48;;;6.20;51.50;;;;;;5048304;28;20029;-87
2022/03/23 05:27:48;;;;;;;40.25;16.48;;;6.20;51.20;;;;;;5032725;28;20033;-86
2022/03/23 05:30:14;;;;;;;37.13;15.65;;;6.10;51.50;;;;;;5033580;28;20466;-85
2022/03/23 05:32:41;;;;;;;27.80;15.63;;;6.10;51.80;;;;;;5035755;28;20025;-84
2022/03/23 05:35:08;;;;;;;30.35;15.55;;;6.10;52.30;;;;;;5034948;28;20349;-85
2022/03/23 05:37:34;;;;;;;34.47;15.40;;;6.20;52.40;;;;;;5034517;28;20037;-86
2022/03/23 05:40:03;;;;;;;40.20;16.27;;;6.20;52.50;;;;;;5033649;28;20034;-86
2022/03/23 05:42:28;;;;;;;33.92;16.15;;;6.30;52.80;;;;;;5053723;28;20044;-86
2022/03/23 05:44:54;;;;;;;32.00;17.13;;;6.30;53.20;;;;;;5061092;28;20414;-85
2022/03/23 05:47:21;;;;;;;35.40;16.42;;;6.40;53.40;;;;;;5055195;28;20061;-86
2022/03/23 05:49:46;;;;;;;40.92;16.95;;;6.40;53.60;;;;;;5052808;28;20021;-87
2022/03/23 05:52:12;;;;;;;32.13;17.52;;;6.40;53.70;;;;;;5051961;28;20022;-86
2022/03/23 05:54:38;;;;;;;31.92;16.88;;;6.40;54.40;;;;;;5051218;28;20143;-87
2022/03/23 05:57:05;;;;;;;31.60;17.48;;;6.40;53.90;;;;;;5069276;28;20120;-87
2022/03/23 05:59:31;;;;;;;35.72;17.33;;;6.50;53.70;;;;;;5051595;28;20037;-88
2022/03/23 06:02:00;;;;;;;39.63;18.13;;;6.50;53.10;;;;;;5053493;28;20052;-87
2022/03/23 06:04:26;;;;;;;36.00;18.65;;;6.50;52.80;;;;;;5053558;28;20393;-87
2022/03/23 06:06:52;;;;;;;35.22;18.08;;;6.60;52.70;;;;;;5052382;28;20056;-89
2022/03/23 06:09:19;;;;;;;32.42;17.83;;;6.60;53.00;;;;;;5051726;28;20029;-86
2022/03/23 06:11:45;;;;;;;41.65;18.58;;;6.60;52.80;;;;;;5052332;28;20036;-87
2022/03/23 06:14:10;;;;;;;39.63;19.67;;;6.60;53.00;;;;;;5052707;28;20033;-88
2022/03/23 06:16:36;;;;;;;39.72;20.23;;;6.70;53.10;;;;;;5052166;28;20021;-86
2022/03/23 06:19:02;;;;;;;40.10;20.23;;;6.70;52.90;;;;;;5052294;28;20389;-88
2022/03/23 06:21:28;;;;;;;41.28;20.73;;;6.70;52.60;;;;;;5052649;28;20421;-87
2022/03/23 06:23:54;;;;;;;34.80;20.95;;;6.80;51.70;;;;;;5053086;28;20083;-87
2022/03/23 06:26:20;;;;;;;33.90;21.23;;;6.80;50.10;;;;;;5052911;28;20048;-87
2022/03/23 06:28:45;;;;;;;31.98;20.80;;;6.80;48.10;;;;;;5052843;28;20039;-87
2022/03/23 06:31:11;;;;;;;34.95;21.45;;;6.80;47.10;;;;;;5052999;28;20029;-87
2022/03/23 06:33:37;;;;;;;36.78;20.83;;;6.90;47.10;;;;;;5052711;28;20525;-86
2022/03/23 06:36:03;;;;;;;38.67;20.98;;;6.90;47.20;;;;;;5052022;28;20036;-87
2022/03/23 06:38:29;;;;;;;32.42;21.05;;;6.90;47.20;;;;;;5052694;28;20029;-86
2022/03/23 06:40:55;;;;;;;33.47;20.92;;;7.00;47.30;;;;;;5052972;28;20055;-88
2022/03/23 06:43:21;;;;;;;33.17;21.70;;;7.00;46.60;;;;;;5053109;28;20037;-87
2022/03/23 06:45:46;;;;;;;40.63;23.48;;;7.10;46.10;;;;;;5053837;28;20033;-86
2022/03/23 06:48:12;;;;;;;34.60;22.05;;;7.10;46.00;;;;;;5053439;28;20041;-87
2022/03/23 06:50:38;;;;;;;36.25;21.52;;;7.20;46.00;;;;;;5052838;28;20032;-88
2022/03/23 06:53:03;;;;;;;33.67;21.27;;;7.20;45.80;;;;;;5053276;28;20025;-87
2022/03/23 06:55:29;;;;;;;35.45;21.90;;;7.30;46.20;;;;;;5052577;28;20053;-88
2022/03/23 06:57:55;;;;;;;43.53;22.85;;;7.40;46.40;;;;;;5054170;28;20033;-88
2022/03/23 07:00:20;;;;;;;39.67;22.48;;;7.50;46.40;;;;;;5052109;28;20037;-88
2022/03/23 07:02:48;;;;;;;39.72;23.15;;;7.50;46.30;;;;;;5053793;28;20029;-87
2022/03/23 07:05:16;;;;;;;43.97;23.65;;;7.60;46.40;;;;;;5057973;28;20048;-88
2022/03/23 07:09:31;;;;;;;43.72;22.30;;;7.70;46.60;;;;;;5056526;28;20029;-89
2022/03/23 07:10:28;;;;;;;38.28;22.45;;;7.80;46.60;;;;;;5057161;28;20035;-89
2022/03/23 07:12:55;;;;;;;34.08;22.45;;;7.90;46.50;;;;;;5057735;28;20477;-90
2022/03/23 07:15:21;;;;;;;33.40;21.27;;;8.20;46.60;;;;;;5057019;28;20051;-88
2022/03/23 07:17:47;;;;;;;32.58;20.50;;;8.50;45.70;;;;;;5057883;28;20040;-89
2022/03/23 07:20:13;;;;;;;33.63;20.90;;;8.80;44.70;;;;;;5058135;28;20029;-88
2022/03/23 07:22:38;;;;;;;34.28;19.38;;;9.20;43.90;;;;;;5073567;28;20029;-87
2022/03/23 07:25:05;;;;;;;38.45;20.98;;;9.60;42.20;;;;;;5072211;28;20044;-89
2022/03/23 07:27:31;;;;;;;35.00;19.55;;;10.00;41.40;;;;;;5058538;28;20075;-89
2022/03/23 07:29:57;;;;;;;36.05;19.70;;;10.40;40.20;;;;;;5058013;28;20485;-89
2022/03/23 07:32:22;;;;;;;31.00;19.13;;;10.90;39.30;;;;;;5056192;28;20029;-89
2022/03/23 07:34:48;;;;;;;33.20;20.55;;;11.50;37.90;;;;;;5056961;28;20032;-90
2022/03/23 07:37:14;;;;;;;28.20;17.83;;;12.30;37.00;;;;;;5058790;28;20091;-90
2022/03/23 07:39:40;;;;;;;24.88;17.27;;;13.80;34.60;;;;;;5056961;28;20051;-91
2022/03/23 07:42:06;;;;;;;27.75;17.67;;;16.30;30.90;;;;;;5058841;28;20136;-89
2022/03/23 07:44:32;;;;;;;25.33;16.48;;;19.80;28.10;;;;;;5075684;28;20051;-91
2022/03/23 07:46:58;;;;;;;23.25;16.15;;;22.60;25.10;;;;;;5058764;28;20386;-90
2022/03/23 07:49:24;;;;;;;39.78;17.38;;;24.40;23.20;;;;;;5058338;28;20028;-90
2022/03/23 07:51:50;;;;;;;36.90;18.75;;;25.20;22.40;;;;;;5058128;28;20451;-90
2022/03/23 07:54:16;;;;;;;39.67;18.65;;;25.60;22.00;;;;;;5058692;28;20029;-90
2022/03/23 07:56:41;;;;;;;36.95;18.08;;;26.40;21.70;;;;;;5058688;28;20080;-91
2022/03/23 07:59:07;;;;;;;31.83;17.90;;;26.90;21.50;;;;;;5058554;28;20190;-92
2022/03/23 08:01:33;;;;;;;34.58;17.50;;;27.60;21.60;;;;;;5057404;28;20033;-92
2022/03/23 08:06:44;;;;;;;30.13;15.60;;;28.00;20.70;;;;;;5039040;28;20036;-89
2022/03/23 08:09:09;;;;;;;23.33;13.55;;;28.50;20.80;;;;;;5038469;28;20033;-91
2022/03/23 08:11:36;;;;;;;16.52;12.23;;;28.90;20.50;;;;;;5054781;28;20021;-90
2022/03/23 08:14:01;;;;;;;15.27;11.05;;;29.20;20.20;;;;;;5060961;28;20039;-90
2022/03/23 08:16:27;;;;;;;19.88;11.45;;;29.60;19.90;;;;;;5058964;28;20100;-90
2022/03/23 08:18:53;;;;;;;13.05;10.65;;;29.70;19.70;;;;;;5058866;28;20031;-90
2022/03/23 08:21:21;;;;;;;15.82;11.07;;;30.00;19.50;;;;;;5055512;28;20086;-83
2022/03/23 08:23:47;;;;;;;14.55;10.45;;;30.10;19.30;;;;;;5058795;28;20051;-90
2022/03/23 08:26:14;;;;;;;12.27;10.43;;;30.20;19.10;;;;;;5060477;28;20044;-90
2022/03/23 08:28:44;;;;;;;13.57;10.82;;;30.10;19.10;;;;;;5069196;28;20025;-90
2022/03/23 08:31:11;;;;;;;16.83;10.93;;;30.10;19.00;;;;;;5062917;28;20021;-92
2022/03/23 08:33:37;;;;;;;17.42;11.90;;;30.00;19.30;;;;;;5062471;28;20058;-93
2022/03/23 08:36:05;;;;;;;14.63;11.60;;;29.70;19.00;;;;;;5073858;28;20013;-91
2022/03/23 08:38:30;;;;;;;16.42;11.25;;;29.40;19.00;;;;;;5076351;28;20052;-91
2022/03/23 08:40:57;;;;;;;16.65;11.35;;;28.80;19.60;;;;;;5076541;28;20013;-91
2022/03/23 08:43:23;;;;;;;16.25;11.98;;;28.20;19.50;;;;;;5068097;28;20351;-91
2022/03/23 08:45:49;;;;;;;16.52;11.45;;;26.70;19.70;;;;;;5057705;28;20130;-91
2022/03/23 08:48:15;;;;;;;24.77;11.77;;;25.20;20.30;;;;;;5057339;28;20365;-93
2022/03/23 08:50:41;;;;;;;22.05;12.85;;;23.70;21.10;;;;;;5059472;28;20806;-92
2022/03/23 08:53:07;;;;;;;15.35;12.50;;;22.70;22.20;;;;;;5057460;28;20025;-93
2022/03/23 08:55:33;;;;;;;20.15;12.40;;;21.70;22.60;;;;;;5056018;28;20041;-92
2022/03/23 08:57:59;;;;;;;20.90;12.43;;;21.30;23.50;;;;;;5055738;28;20434;-93
2022/03/23 09:00:25;;;;;;;21.52;12.45;;;21.00;24.20;;;;;;5055917;28;20056;-91
2022/03/23 09:02:51;;;;;;;15.32;11.40;;;20.90;24.00;;;;;;5056784;28;20036;-92
2022/03/23 09:05:19;;;;;;;17.27;12.10;;;20.70;24.40;;;;;;5058476;28;20032;-93
2022/03/23 09:07:45;;;;;;;19.17;12.48;;;20.50;24.00;;;;;;5056288;28;20058;-92
2022/03/23 09:10:15;;;;;;;20.98;12.02;;;20.40;24.00;;;;;;5055179;28;20039;-92
2022/03/23 09:12:42;;;;;;;16.60;12.13;;;20.10;24.20;;;;;;5056316;28;20033;-90
2022/03/23 09:15:12;;;;;;;15.88;11.52;;;20.00;25.00;;;;;;5056442;28;20075;-89
2022/03/23 09:17:40;;;;;;;19.80;13.10;;;19.80;24.40;;;;;;5055646;28;20021;-90
2022/03/23 09:20:07;;;;;;;18.27;12.57;;;19.60;24.60;;;;;;5058140;28;20036;-91
2022/03/23 09:22:36;;;;;;;18.30;12.60;;;19.50;24.90;;;;;;5057556;28;20029;-92
2022/03/23 09:25:24;;;;;;;14.20;12.15;;;19.40;24.90;;;;;;5058083;28;20063;-92
2022/03/23 09:27:51;;;;;;;15.90;12.20;;;19.30;25.10;;;;;;5056491;28;20040;-91
2022/03/23 09:30:17;;;;;;;20.77;12.80;;;19.30;25.30;;;;;;5055303;28;20059;-93
2022/03/23 09:32:44;;;;;;;15.23;12.55;;;19.20;25.30;;;;;;5055372;28;20067;-92
2022/03/23 09:35:11;;;;;;;20.10;12.43;;;19.10;25.70;;;;;;5056214;28;20119;-92
2022/03/23 09:37:49;;;;;;;17.58;12.30;;;19.20;26.20;;;;;;5056979;28;20029;-93
2022/03/23 09:40:27;;;;;;;19.35;12.07;;;19.20;26.00;;;;;;5058034;28;20029;-92
2022/03/23 09:42:55;;;;;;;17.67;12.82;;;19.30;26.10;;;;;;5058170;28;20032;-91
2022/03/23 09:45:45;;;;;;;20.50;11.52;;;19.30;26.10;;;;;;5057513;28;20033;-93
2022/03/23 09:48:11;;;;;;;20.85;12.85;;;19.30;25.80;;;;;;5060429;28;20132;-94
2022/03/23 09:50:42;;;;;;;16.77;12.38;;;19.20;25.80;;;;;;5060820;28;20036;-90
2022/03/23 09:53:08;;;;;;;;;;;19.20;26.30;;;;;;5065444;28;20028;-91
2022/03/23 09:55:34;;;;;;;22.83;13.05;;;19.20;26.50;;;;;;5068730;28;19947;-88
2022/03/23 09:58:03;;;;;;;18.02;12.77;;;19.20;26.30;;;;;;5073002;28;20057;-92
2022/03/23 10:00:34;;;;;;;19.13;12.63;;;19.20;26.60;;;;;;5074598;28;20086;-89
2022/03/23 10:03:12;;;;;;;17.15;12.75;;;19.20;26.50;;;;;;5075173;28;20110;-90
2022/03/23 10:06:28;;;;;;;15.93;13.02;;;19.20;26.40;;;;;;5073652;28;20033;-89
2022/03/23 10:08:53;;;;;;;16.92;13.13;;;19.30;26.40;;;;;;5075313;28;20021;-89
2022/03/23 10:11:57;;;;;;;19.92;13.25;;;19.30;26.10;;;;;;5075619;28;20025;-91
2022/03/23 10:14:50;;;;;;;18.75;12.63;;;19.30;26.30;;;;;;5072175;28;20025;-91
2022/03/23 10:17:58;;;;;;;20.80;13.20;;;19.40;26.50;;;;;;5072634;28;20020;-91
2022/03/23 10:20:24;;;;;;;21.80;13.15;;;19.30;26.50;;;;;;5073304;28;20045;-89
2022/03/23 10:22:52;;;;;;;18.17;12.90;;;19.50;26.80;;;;;;5065805;28;20032;-90
2022/03/23 10:25:20;;;;;;;20.90;13.32;;;19.60;26.90;;;;;;5062008;28;20028;-91
2022/03/23 10:27:47;;;;;;;18.90;13.30;;;19.60;26.10;;;;;;5061691;28;20047;-92
2022/03/23 10:30:16;;;;;;;19.00;12.90;;;19.70;26.50;;;;;;5064138;28;20033;-93
2022/03/23 10:32:42;;;;;;;20.73;13.00;;;19.80;26.40;;;;;;5062090;28;20036;-89
2022/03/23 10:35:34;;;;;;;20.63;13.18;;;19.90;26.60;;;;;;5062509;28;20104;-92
2022/03/23 10:38:13;;;;;;;17.58;12.63;;;19.90;25.70;;;;;;5062391;28;20480;-91
2022/03/23 10:40:39;;;;;;;15.98;12.73;;;20.00;25.80;;;;;;5066857;28;20492;-91
2022/03/23 10:43:04;;;;;;;17.02;13.20;;;19.90;25.60;;;;;;5067528;28;20033;-90
2022/03/23 10:45:32;;;;;;;14.20;12.18;;;19.90;25.80;;;;;;5065404;28;20470;-87
2022/03/23 10:48:24;;;;;;;19.02;12.30;;;19.90;25.70;;;;;;5066963;28;20074;-88
2022/03/23 10:50:56;;;;;;;14.88;11.70;;;20.00;26.30;;;;;;5088119;28;20560;-90
2022/03/23 10:53:34;;;;;;;15.10;12.32;;;20.00;26.00;;;;;;5078432;28;20025;-90
2022/03/23 10:56:00;;;;;;;17.35;12.38;;;20.00;26.50;;;;;;5079632;28;20097;-90
2022/03/23 10:58:27;;;;;;;17.52;12.45;;;20.00;25.70;;;;;;5079985;28;20035;-91
2022/03/23 11:00:58;;;;;;;15.80;12.10;;;20.10;25.50;;;;;;5078706;28;20032;-91
2022/03/23 11:03:39;;;;;;;17.25;11.40;;;20.10;25.70;;;;;;5079478;28;20027;-90
2022/03/23 11:06:07;;;;;;;16.38;11.07;;;20.20;25.10;;;;;;5074905;28;20025;-92
2022/03/23 11:08:33;;;;;;;18.02;11.93;;;20.20;25.30;;;;;;5077038;28;20152;-84
2022/03/23 11:16:52;;;;;;;21.15;11.32;;;20.40;24.90;;;;;;5078566;28;20014;-89
2022/03/23 11:19:23;;;;;;;14.80;10.77;;;20.40;25.40;;;;;;5078793;28;20028;-90
2022/03/23 11:22:05;;;;;;;15.52;10.88;;;20.40;25.40;;;;;;5078350;28;20110;-89
2022/03/23 11:24:42;;;;;;;19.88;11.15;;;20.50;25.70;;;;;;5078117;28;20129;-92
2022/03/23 11:27:18;;;;;;;18.23;11.57;;;20.60;25.20;;;;;;5076479;28;20108;-88
2022/03/23 11:29:46;;;;;;;18.50;11.20;;;20.70;24.80;;;;;;5075383;28;20036;-90
2022/03/23 11:32:28;;;;;;;18.45;10.82;;;20.70;24.90;;;;;;5073794;28;20028;-91
2022/03/23 11:34:56;;;;;;;20.60;12.35;;;20.80;24.60;;;;;;5060834;28;20027;-91
2022/03/23 11:37:23;;;;;;;17.13;10.90;;;20.80;24.50;;;;;;5059929;28;20067;-90
2022/03/23 11:39:51;;;;;;;20.27;11.68;;;20.80;24.40;;;;;;5058612;28;20067;-91
2022/03/23 11:42:22;;;;;;;18.77;11.55;;;20.80;24.20;;;;;;5059073;28;20527;-90
2022/03/23 11:44:48;;;;;;;16.13;11.43;;;20.80;24.60;;;;;;5057998;28;20120;-89
2022/03/23 11:47:31;;;;;;;14.00;11.35;;;20.80;24.30;;;;;;5058375;28;20029;-90
2022/03/23 11:50:18;;;;;;;17.23;10.60;;;20.80;24.40;;;;;;5059716;28;20403;-90
2022/03/23 11:52:58;;;;;;;16.42;10.13;;;20.80;24.40;;;;;;5059195;28;20025;-90
2022/03/23 11:55:54;;;;;;;15.20;10.50;;;20.90;24.20;;;;;;5056938;28;20056;-88
2022/03/23 11:58:32;;;;;;;12.60;10.70;;;20.90;23.90;;;;;;5054546;28;20116;-89
2022/03/23 12:01:06;;;;;;;15.23;10.27;;;20.90;23.60;;;;;;5056855;28;20098;-89
2022/03/23 12:03:57;;;;;;;15.55;10.38;;;20.90;24.10;;;;;;5057549;28;20032;-89
2022/03/23 12:06:36;;;;;;;19.00;10.52;;;20.90;23.70;;;;;;5057946;28;20021;-88
2022/03/23 12:09:01;;;;;;;18.10;12.02;;;21.00;23.90;;;;;;5058334;28;20037;-90
2022/03/23 12:11:45;;;;;;;13.20;9.57;;;21.00;23.40;;;;;;5056074;28;20378;-87
2022/03/23 12:14:30;;;;;;;12.50;9.52;;;20.90;23.40;;;;;;5057365;28;20105;-88
2022/03/23 12:16:55;;;;;;;12.77;9.63;;;20.80;23.40;;;;;;5056278;28;20453;-90
2022/03/23 12:19:26;;;;;;;14.50;9.82;;;20.80;23.30;;;;;;5056484;28;20072;-90
2022/03/23 12:22:07;;;;;;;16.05;10.48;;;20.70;23.10;;;;;;5056402;28;20115;-89
2022/03/23 12:24:41;;;;;;;16.95;10.75;;;20.70;23.30;;;;;;5056296;28;20107;-89
2022/03/23 12:27:39;;;;;;;13.05;10.30;;;20.60;23.20;;;;;;5054454;28;20112;-88
2022/03/23 12:30:25;;;;;;;13.90;10.60;;;20.60;23.80;;;;;;5033696;28;20029;-89
2022/03/23 12:32:56;;;;;;;16.35;10.38;;;20.50;23.50;;;;;;5053971;28;20033;-89
2022/03/23 12:35:33;;;;;;;12.82;9.73;;;20.50;23.90;;;;;;5057089;28;20024;-89
2022/03/23 12:37:59;;;;;;;12.18;10.45;;;20.40;23.80;;;;;;5057771;28;20394;-89
2022/03/23 12:40:40;;;;;;;15.57;9.32;;;20.30;23.80;;;;;;5058299;28;20064;-90
2022/03/23 12:43:05;;;;;;;13.18;9.10;;;20.20;23.80;;;;;;5057522;28;20021;-89
2022/03/23 12:45:39;;;;;;;13.80;9.43;;;20.20;23.70;;;;;;5061672;28;20032;-88
2022/03/23 12:59:19;;;;;;;11.10;8.40;;;19.80;23.20;;;;;;5055779;28;20338;-87
2022/03/23 13:01:46;;;;;;;12.93;8.63;;;19.70;23.10;;;;;;5054355;28;20467;-89
2022/03/23 13:04:42;;;;;;;13.05;8.45;;;19.70;23.40;;;;;;5054421;28;20028;-88
2022/03/23 13:07:29;;;;;;;10.90;7.97;;;19.60;23.10;;;;;;5054938;28;20024;-88
2022/03/23 13:10:06;;;;;;;12.82;7.80;;;19.50;23.20;;;;;;5053842;28;20052;-91